createdAt,value
2019-05-16T00:05:22.401Z,3.30
2019-05-16T00:07:42.937Z,3.37
2019-05-16T00:10:12.858Z,3.20
2019-05-16T00:12:42.310Z,3.12
2019-05-16T00:15:12.370Z,3.65
2019-05-16T00:17:43.545Z,3.33
2019-05-16T00:20:19.221Z,3.33
2019-05-16T00:22:53.243Z,3.40
2019-05-16T00:25:22.775Z,4.05
2019-05-16T00:27:52.139Z,3.72
2019-05-16T00:30:22.056Z,3.65
2019-05-16T00:32:51.462Z,4.10
2019-05-16T00:35:28.328Z,4.35
2019-05-16T00:37:58.921Z,3.72
2019-05-16T00:40:28.649Z,4.03
2019-05-16T00:42:58.882Z,3.85
2019-05-16T00:45:30.302Z,3.92
2019-05-16T00:47:59.738Z,4.20
2019-05-16T00:50:29.212Z,4.10
2019-05-16T00:52:59.147Z,4.37
2019-05-16T00:55:32.842Z,4.00
2019-05-16T00:58:04.743Z,3.70
2019-05-16T01:00:50.328Z,3.77
2019-05-16T01:03:20.622Z,3.83
2019-05-16T01:05:50.087Z,3.98
2019-05-16T01:08:19.359Z,3.70
2019-05-16T01:10:51.434Z,4.10
2019-05-16T01:13:20.302Z,3.83
2019-05-16T01:15:49.800Z,3.70
2019-05-16T01:18:19.415Z,3.27
2019-05-16T01:20:48.946Z,3.70
2019-05-16T01:23:18.477Z,3.45
2019-05-16T01:25:48.473Z,3.80
2019-05-16T01:28:18.479Z,3.85
2019-05-16T01:30:48.944Z,3.50
2019-05-16T01:33:19.196Z,4.28
2019-05-16T01:35:49.604Z,3.80
2019-05-16T01:41:11.810Z,3.47
2019-05-16T01:43:41.103Z,4.08
2019-05-16T01:46:10.642Z,4.17
2019-05-16T01:51:08.458Z,4.12
2019-05-16T01:53:39.457Z,3.98
2019-05-16T01:56:09.178Z,4.40
2019-05-16T01:58:38.517Z,3.70
2019-05-16T02:01:13.204Z,3.77
2019-05-16T02:03:38.896Z,4.05
2019-05-16T02:06:09.012Z,4.00
2019-05-16T02:08:38.308Z,4.10
2019-05-16T02:11:08.533Z,3.92
2019-05-16T02:13:39.071Z,3.90
2019-05-16T02:16:08.800Z,4.15
2019-05-16T02:18:38.298Z,3.85
2019-05-16T02:21:07.971Z,3.90
2019-05-16T02:23:38.366Z,4.90
2019-05-16T02:26:08.008Z,4.15
2019-05-16T02:31:06.640Z,4.15
2019-05-16T02:33:35.949Z,4.37
2019-05-16T02:36:05.297Z,4.03
2019-05-16T02:38:34.710Z,4.10
2019-05-16T02:41:04.093Z,3.83
2019-05-16T02:43:33.635Z,4.30
2019-05-16T02:46:03.188Z,4.00
2019-05-16T02:48:35.450Z,3.92
2019-05-16T02:51:03.531Z,4.12
2019-05-16T02:56:01.854Z,4.25
2019-05-16T02:58:31.434Z,4.03
2019-05-16T03:01:01.811Z,3.95
2019-05-16T03:03:32.569Z,4.00
2019-05-16T03:06:03.023Z,4.22
2019-05-16T03:08:33.338Z,4.12
2019-05-16T03:11:06.556Z,3.72
2019-05-16T03:13:42.132Z,3.45
2019-05-16T03:16:12.485Z,4.00
2019-05-16T03:18:42.654Z,3.77
2019-05-16T03:21:13.000Z,4.33
2019-05-16T03:23:42.441Z,4.10
2019-05-16T03:26:14.328Z,4.12
2019-05-16T03:28:43.629Z,3.90
2019-05-16T03:31:25.369Z,3.92
2019-05-16T03:35:04.587Z,3.80
2019-05-16T03:37:49.922Z,3.55
2019-05-16T03:40:07.632Z,3.92
2019-05-16T03:42:37.189Z,3.90
2019-05-16T03:45:06.783Z,3.42
2019-05-16T03:47:42.764Z,3.67
2019-05-16T03:50:11.265Z,3.67
2019-05-16T03:52:43.663Z,3.70
2019-05-16T03:55:12.264Z,3.35
2019-05-16T03:57:42.026Z,3.77
2019-05-16T04:00:12.598Z,3.42
2019-05-16T04:02:45.596Z,3.87
2019-05-16T04:05:13.657Z,3.98
2019-05-16T04:07:43.090Z,3.05
2019-05-16T04:10:13.058Z,3.58
2019-05-16T04:12:42.408Z,3.30
2019-05-16T04:17:41.446Z,3.40
2019-05-16T04:20:11.993Z,3.42
2019-05-16T04:22:41.560Z,3.50
2019-05-16T04:25:11.790Z,3.40
2019-05-16T04:27:42.014Z,3.02
2019-05-16T04:30:12.359Z,3.22
2019-05-16T04:32:42.357Z,3.52
2019-05-16T04:35:12.526Z,3.50
2019-05-16T04:37:42.746Z,3.22
2019-05-16T04:40:12.676Z,2.92
2019-05-16T04:42:42.151Z,3.00
2019-05-16T04:45:13.046Z,3.12
2019-05-16T04:47:42.447Z,3.47
2019-05-16T04:50:12.864Z,3.12
2019-05-16T04:52:42.263Z,3.27
2019-05-16T04:55:12.335Z,3.67
2019-05-16T04:57:42.625Z,3.33
2019-05-16T05:00:14.227Z,2.80
2019-05-16T05:02:43.637Z,3.05
2019-05-16T05:05:14.278Z,3.15
2019-05-16T05:07:43.577Z,3.08
2019-05-16T05:10:13.642Z,3.20
2019-05-16T05:12:42.940Z,3.05
2019-05-16T05:15:13.356Z,3.08
2019-05-16T05:17:42.721Z,2.77
2019-05-16T05:20:12.187Z,3.05
2019-05-16T05:22:41.514Z,2.95
2019-05-16T05:25:11.158Z,3.35
2019-05-16T05:27:41.241Z,2.75
2019-05-16T05:30:11.820Z,2.50
2019-05-16T05:32:41.512Z,2.80
2019-05-16T05:35:11.877Z,3.00
2019-05-16T05:37:41.257Z,2.42
2019-05-16T05:40:13.121Z,2.95
2019-05-16T05:42:42.434Z,3.20
2019-05-16T05:45:12.840Z,2.55
2019-05-16T05:47:42.198Z,2.95
2019-05-16T05:50:14.597Z,2.80
2019-05-16T05:52:46.209Z,2.25
2019-05-16T05:55:14.968Z,2.50
2019-05-16T05:57:44.289Z,2.22
2019-05-16T06:00:14.491Z,2.60
2019-05-16T06:02:43.833Z,2.62
2019-05-16T06:05:13.802Z,2.60
2019-05-16T06:07:43.095Z,2.22
2019-05-16T06:10:12.970Z,2.30
2019-05-16T06:12:42.844Z,2.33
2019-05-16T06:15:13.656Z,2.37
2019-05-16T06:17:43.001Z,2.20
2019-05-16T06:20:14.873Z,2.90
2019-05-16T06:22:44.081Z,3.02
2019-05-16T06:25:14.118Z,3.80
2019-05-16T06:27:43.539Z,2.50
2019-05-16T06:30:13.457Z,2.77
2019-05-16T06:32:42.812Z,2.58
2019-05-16T06:35:12.814Z,2.80
2019-05-16T06:37:42.379Z,3.77
2019-05-16T06:42:40.491Z,4.80
2019-05-16T06:45:10.524Z,3.27
2019-05-16T06:47:40.032Z,2.83
2019-05-16T06:50:11.442Z,2.52
2019-05-16T06:52:41.110Z,2.62
2019-05-16T06:55:11.073Z,3.30
2019-05-16T06:57:41.028Z,2.55
2019-05-16T07:00:11.534Z,3.12
2019-05-16T07:02:41.109Z,2.37
2019-05-16T07:05:10.787Z,2.75
2019-05-16T07:07:40.690Z,2.98
2019-05-16T07:10:10.900Z,3.27
2019-05-16T07:12:41.325Z,2.70
2019-05-16T07:15:12.712Z,2.50
2019-05-16T07:17:42.099Z,2.50
2019-05-16T07:20:14.190Z,2.37
2019-05-16T07:22:43.508Z,2.60
2019-05-16T07:25:14.171Z,2.25
2019-05-16T07:27:43.521Z,3.05
2019-05-16T07:30:14.795Z,2.60
2019-05-16T07:32:44.138Z,2.62
2019-05-16T07:35:14.129Z,2.60
2019-05-16T07:37:43.476Z,2.47
2019-05-16T07:40:23.598Z,2.65
2019-05-16T07:42:44.194Z,2.20
2019-05-16T07:45:13.761Z,2.17
2019-05-16T07:47:43.081Z,2.35
2019-05-16T07:50:13.228Z,2.42
2019-05-16T07:52:42.593Z,2.70
2019-05-16T07:55:13.065Z,2.60
2019-05-16T07:57:42.610Z,2.30
2019-05-16T08:00:12.475Z,2.50
2019-05-16T08:02:41.788Z,2.75
2019-05-16T08:05:11.285Z,2.35
2019-05-16T08:07:41.020Z,2.45
2019-05-16T08:10:11.063Z,2.22
2019-05-16T08:12:40.979Z,2.67
